Sun Prairie, WI (53590)

2:40 PM CST on March 02, 2015 (GMT -0600)
Northside School | Change Station
CLOSE
Current Station
Personal Weather Station
Location: Sun Prairie, WI
Elevation: 1007 ft
Nearby Weather Stations
Active Advisory: Winter Weather Advisory

Elev 1007 ft 43.19 °N, 89.22 °W | Updated 16 seconds ago

Partly Cloudy
Partly Cloudy
27.6 °F
Feels Like 28 °F
N
0.0
Wind Variable Wind from SW
Gusts 3.0 mph

Today
High -- | Low -- °F
--% Chance of Precip.
Yesterday
High -- | Low -- °F
Precip. -- in
6:31 AM 5:47 PM
Waxing Gibbous, 93% visible
Pressure 30.46 in
Visibility 10.0 miles
Clouds Mostly Cloudy 20000 ft
Windchill 28 °F
Dew Point 13 °F
Humidity 53%
Rainfall 0.00 in
Snow Depth Not available.
UV 2 out of 12
Pollen .50 out of 12
Air Quality Not available.
Flu Activity Not available.
METAR KMSN 021953Z 18006KT 10SM BKN200 M03/M14 A3042 RMK AO2 SLP315 T10331139

More Conditions Fewer Conditions

Pressure 30.46 in
Visibility 10.0 miles
Clouds Mostly Cloudy 20000 ft
Windchill 28 °F
Dew Point 13 °F
Humidity 53%
Rainfall 0.00 in
Snow Depth Not available.
UV 2 out of 12
Pollen .50 out of 12
Air Quality Not available.
Flu Activity Not available.
METAR KMSN 021953Z 18006KT 10SM BKN200 M03/M14 A3042 RMK AO2 SLP315 T10331139

More Conditions Fewer Conditions

10-Day Weather Forecast

Almanac

Astronomy

Mar. 02, 2015 Rise Set
Actual Time
Civil Twilight
Nautical Twilight
Astronomical Twilight
Moon
Length of Visible Light
Length of Day
Tomorrow will be .
, % of the Moon is Illuminated

Today's Extremes

State Highs State Lows

Community

WunderPhotos

Upload Photos

1,801,941 photos uploaded!

WunderBlogs® & News

Nearby

Air Quality

  Air Quality AQ Index Pollutant
Not available.

Snow Depth

Station Depth Elevation

Earthquake Activity

City Distance Mag. Time & Date
Minimum magnitude displayed is 2.5.

Coastal Water Temperatures

Place Temperature

Nearby Weather Stations

Winter Weather Advisory
Statement as of 11:04 AM CST on March 02, 2015

... Winter Weather Advisory remains in effect from 3 am to 6 PM
CST Tuesday...

A Winter Weather Advisory remains in effect from 3 am to 6 PM CST
Tuesday.

* Timing... snow will arrive early Tuesday morning and taper off
during the afternoon.

* Snow accumulations... 2 to 4 inches.

* Impacts... a period of heavy... wet snow will cause slippery
roads during the Tuesday morning commute.

Precautionary/preparedness actions...

A Winter Weather Advisory for snow means that periods of snow
will cause primarily travel difficulties. Be prepared for snow
covered roads and limited visibilities... and use caution while
driving.